createdAt,value
2023-04-17T00:00:12.829Z,15.02
2023-04-17T00:02:41.337Z,15.00
2023-04-17T00:05:10.822Z,15.06
2023-04-17T00:07:39.298Z,15.10
2023-04-17T00:10:09.346Z,15.01
2023-04-17T00:12:38.066Z,14.99
2023-04-17T00:15:06.806Z,15.03
2023-04-17T00:17:36.540Z,15.05
2023-04-17T00:20:07.891Z,15.06
2023-04-17T00:22:36.251Z,15.06
2023-04-17T00:25:04.727Z,15.09
2023-04-17T00:27:35.279Z,15.05
2023-04-17T00:30:03.781Z,15.09
2023-04-17T00:32:31.788Z,15.12
2023-04-17T00:35:01.181Z,15.12
2023-04-17T00:37:29.926Z,15.15
2023-04-17T00:39:57.966Z,15.18
2023-04-17T00:42:26.223Z,15.19
2023-04-17T00:44:54.653Z,15.12
2023-04-17T00:47:23.370Z,15.09
2023-04-17T00:49:52.011Z,15.01
2023-04-17T00:52:29.234Z,14.99
2023-04-17T00:54:58.857Z,14.89
2023-04-17T00:57:27.906Z,14.87
2023-04-17T00:59:57.692Z,14.83
2023-04-17T01:02:26.203Z,14.84
2023-04-17T01:04:54.558Z,14.81
2023-04-17T01:07:24.279Z,14.78
2023-04-17T01:09:52.263Z,14.78
2023-04-17T01:12:22.947Z,14.79
2023-04-17T01:14:51.766Z,14.69
2023-04-17T01:17:22.484Z,14.75
2023-04-17T01:19:51.252Z,14.77
2023-04-17T01:22:20.555Z,14.66
2023-04-17T01:24:53.926Z,14.58
2023-04-17T01:27:22.662Z,14.45
2023-04-17T01:29:50.852Z,14.40
2023-04-17T01:32:20.007Z,14.25
2023-04-17T01:34:48.338Z,14.39
2023-04-17T01:37:16.348Z,14.48
2023-04-17T01:39:44.958Z,14.49
2023-04-17T01:42:15.485Z,14.58
2023-04-17T01:44:43.527Z,14.58
2023-04-17T01:47:11.456Z,14.59
2023-04-17T01:49:39.818Z,14.54
2023-04-17T01:52:08.156Z,14.53
2023-04-17T01:54:36.600Z,14.54
2023-04-17T01:57:05.243Z,14.38
2023-04-17T01:59:34.571Z,14.50
2023-04-17T02:02:02.691Z,14.52
2023-04-17T02:04:31.384Z,14.44
2023-04-17T02:06:59.425Z,14.36
2023-04-17T02:09:27.678Z,14.44
2023-04-17T02:11:56.895Z,14.46
2023-04-17T02:14:25.985Z,14.45
2023-04-17T02:16:55.866Z,14.41
2023-04-17T02:19:24.175Z,14.43
2023-04-17T02:21:52.242Z,14.43
2023-04-17T02:24:20.374Z,14.47
2023-04-17T02:26:48.681Z,14.49
2023-04-17T02:29:16.740Z,14.53
2023-04-17T02:31:44.994Z,14.47
2023-04-17T02:34:14.677Z,14.47
2023-04-17T02:36:42.736Z,14.43
2023-04-17T02:39:11.219Z,14.43
2023-04-17T02:41:40.636Z,14.42
2023-04-17T02:44:09.266Z,14.47
2023-04-17T02:46:37.260Z,14.48
2023-04-17T02:49:07.670Z,14.45
2023-04-17T02:51:37.713Z,14.49
2023-04-17T02:54:09.287Z,14.46
2023-04-17T02:56:37.422Z,14.50
2023-04-17T02:59:05.892Z,14.48
2023-04-17T03:01:37.650Z,14.51
2023-04-17T03:04:06.489Z,14.48
2023-04-17T03:06:34.603Z,14.51
2023-04-17T03:09:05.364Z,14.37
2023-04-17T03:11:33.964Z,14.37
2023-04-17T03:14:01.913Z,14.43
2023-04-17T03:16:30.071Z,14.33
2023-04-17T03:18:59.195Z,14.24
2023-04-17T03:21:27.817Z,14.35
2023-04-17T03:23:56.183Z,14.20
2023-04-17T03:26:26.049Z,14.21
2023-04-17T03:28:54.586Z,14.07
2023-04-17T03:31:24.517Z,14.21
2023-04-17T03:33:53.110Z,14.19
2023-04-17T03:36:21.432Z,14.13
2023-04-17T03:38:49.518Z,14.17
2023-04-17T03:41:20.517Z,14.18
2023-04-17T03:43:50.281Z,14.15
2023-04-17T03:46:18.804Z,14.20
2023-04-17T03:48:46.975Z,14.15
2023-04-17T03:51:16.175Z,14.12
2023-04-17T03:53:44.733Z,14.11
2023-04-17T03:56:13.608Z,14.12
2023-04-17T03:58:42.452Z,14.17
2023-04-17T04:01:14.751Z,14.16
2023-04-17T04:03:43.826Z,14.18
2023-04-17T04:06:12.366Z,14.14
2023-04-17T04:08:40.519Z,14.01
2023-04-17T04:11:08.933Z,13.98
2023-04-17T04:13:37.872Z,14.04
2023-04-17T04:16:08.056Z,13.81
2023-04-17T04:18:38.592Z,13.93
2023-04-17T04:21:07.378Z,13.92
2023-04-17T04:23:37.673Z,13.90
2023-04-17T04:26:06.448Z,13.81
2023-04-17T04:28:34.956Z,13.81
2023-04-17T04:31:04.422Z,13.85
2023-04-17T04:33:33.089Z,13.78
2023-04-17T04:36:02.575Z,13.87
2023-04-17T04:38:32.471Z,13.78
2023-04-17T04:41:06.274Z,13.64
2023-04-17T04:43:35.571Z,13.65
2023-04-17T04:46:04.796Z,13.60
2023-04-17T04:48:33.108Z,13.60
2023-04-17T04:51:02.637Z,13.69
2023-04-17T04:53:31.336Z,13.78
2023-04-17T04:55:59.519Z,13.75
2023-04-17T04:58:29.514Z,13.71
2023-04-17T05:00:59.839Z,13.68
2023-04-17T05:03:29.172Z,13.61
2023-04-17T05:05:57.253Z,13.40
2023-04-17T05:08:27.934Z,13.67
2023-04-17T05:10:56.519Z,13.75
2023-04-17T05:13:27.452Z,13.72
2023-04-17T05:15:55.928Z,13.76
2023-04-17T05:18:25.573Z,13.55
2023-04-17T05:20:53.660Z,13.67
2023-04-17T05:23:22.980Z,13.51
2023-04-17T05:25:52.442Z,13.64
2023-04-17T05:28:20.686Z,13.65
2023-04-17T05:30:53.662Z,13.44
2023-04-17T05:33:22.464Z,13.58
2023-04-17T05:35:51.966Z,13.84
2023-04-17T05:38:21.635Z,13.82
2023-04-17T05:40:49.792Z,13.90
2023-04-17T05:43:19.419Z,13.95
2023-04-17T05:45:47.768Z,14.05
2023-04-17T05:48:16.248Z,13.70
2023-04-17T05:50:44.495Z,14.02
2023-04-17T05:53:12.545Z,13.90
2023-04-17T05:55:41.094Z,14.00
2023-04-17T05:58:23.063Z,13.80
2023-04-17T06:00:53.526Z,13.65
2023-04-17T06:03:22.306Z,13.86
2023-04-17T06:05:51.955Z,13.80
2023-04-17T06:08:20.169Z,13.80
2023-04-17T06:10:50.239Z,13.85
2023-04-17T06:13:18.318Z,13.48
2023-04-17T06:15:46.730Z,13.83
2023-04-17T06:18:17.913Z,13.80
2023-04-17T06:20:46.288Z,14.01
2023-04-17T06:23:14.571Z,13.90
2023-04-17T06:25:43.892Z,13.94
2023-04-17T06:28:11.962Z,13.93
2023-04-17T06:30:40.518Z,13.88
2023-04-17T06:33:08.934Z,14.09
2023-04-17T06:35:38.778Z,13.96
2023-04-17T06:38:09.097Z,13.76
2023-04-17T06:40:37.218Z,14.06
2023-04-17T06:43:06.324Z,14.05
2023-04-17T06:45:42.097Z,13.96
2023-04-17T06:48:10.346Z,13.94
2023-04-17T06:50:41.495Z,14.11
2023-04-17T06:53:09.500Z,14.20
2023-04-17T06:55:37.476Z,14.31
2023-04-17T06:58:07.103Z,14.37
2023-04-17T07:00:35.156Z,14.54
2023-04-17T07:03:03.625Z,14.68
2023-04-17T07:05:32.356Z,14.76
2023-04-17T07:08:01.696Z,14.68
2023-04-17T07:10:29.838Z,14.49
2023-04-17T07:12:58.228Z,14.61
2023-04-17T07:15:26.773Z,14.79
2023-04-17T07:17:55.138Z,14.71
2023-04-17T07:20:23.604Z,14.76
2023-04-17T07:22:51.659Z,14.47
2023-04-17T07:25:21.239Z,14.82
2023-04-17T07:27:49.802Z,14.86
2023-04-17T07:30:17.998Z,15.02
2023-04-17T07:32:46.427Z,15.10
2023-04-17T07:35:15.159Z,15.09
2023-04-17T07:37:43.190Z,15.34
2023-04-17T07:40:12.003Z,15.52
2023-04-17T07:42:41.699Z,15.48
2023-04-17T07:45:11.326Z,15.53
2023-04-17T07:47:39.471Z,15.37
2023-04-17T07:50:09.013Z,15.30
2023-04-17T07:52:36.927Z,15.11
2023-04-17T07:55:05.422Z,15.32
2023-04-17T07:57:33.774Z,15.21
2023-04-17T08:00:07.073Z,15.21
2023-04-17T08:02:41.740Z,15.32
2023-04-17T08:05:11.580Z,15.35
2023-04-17T08:07:41.177Z,15.45
2023-04-17T08:10:09.844Z,15.53
2023-04-17T08:12:38.245Z,15.54
2023-04-17T08:15:08.779Z,15.52
2023-04-17T08:17:36.847Z,15.59
2023-04-17T08:20:11.280Z,15.75
2023-04-17T08:22:41.120Z,15.89
2023-04-17T08:25:10.846Z,16.28
2023-04-17T08:27:39.890Z,16.45
2023-04-17T08:30:13.300Z,17.06
2023-04-17T08:32:45.540Z,17.36
2023-04-17T08:35:15.601Z,17.61
2023-04-17T08:37:46.798Z,17.14
2023-04-17T08:40:17.161Z,17.46
2023-04-17T08:42:47.723Z,17.69
2023-04-17T08:45:18.432Z,17.67
2023-04-17T08:47:46.913Z,18.07
2023-04-17T08:50:17.812Z,18.31
2023-04-17T08:52:48.268Z,18.16
2023-04-17T08:55:19.371Z,18.41
2023-04-17T08:57:58.658Z,18.85
2023-04-17T09:00:31.199Z,19.39
2023-04-17T09:03:00.413Z,20.01
2023-04-17T09:05:33.377Z,20.21
2023-04-17T09:08:11.266Z,20.65
2023-04-17T09:10:41.569Z,20.84
2023-04-17T09:13:10.555Z,20.67
2023-04-17T09:15:39.997Z,20.90
2023-04-17T09:18:23.832Z,21.06
2023-04-17T09:20:52.715Z,20.59
2023-04-17T09:23:22.820Z,20.69
2023-04-17T09:26:06.951Z,20.45
2023-04-17T09:28:36.905Z,20.57
2023-04-17T09:31:24.451Z,20.46
2023-04-17T09:33:57.754Z,20.35
2023-04-17T09:36:27.360Z,20.29
2023-04-17T09:38:56.031Z,20.08
2023-04-17T09:41:25.530Z,20.05
2023-04-17T09:43:55.312Z,20.30
2023-04-17T09:46:38.238Z,20.59
2023-04-17T09:49:10.819Z,20.93
2023-04-17T09:51:39.713Z,20.82
2023-04-17T09:54:10.121Z,21.35
2023-04-17T09:56:38.960Z,21.58
2023-04-17T09:59:07.762Z,21.52
2023-04-17T10:01:39.981Z,21.45
2023-04-17T10:04:08.562Z,21.53
2023-04-17T10:06:37.333Z,21.39
2023-04-17T10:09:05.864Z,21.41
2023-04-17T10:11:37.489Z,21.45
2023-04-17T10:14:11.820Z,21.47
2023-04-17T10:16:43.727Z,21.30
2023-04-17T10:19:29.790Z,21.18
2023-04-17T10:22:41.006Z,20.93
2023-04-17T10:25:20.483Z,20.59
2023-04-17T10:27:51.904Z,21.00
2023-04-17T10:30:22.290Z,21.24
2023-04-17T10:33:28.377Z,20.96
2023-04-17T10:35:56.749Z,20.62
2023-04-17T10:38:36.071Z,20.71
2023-04-17T10:41:09.264Z,21.10
2023-04-17T10:43:41.931Z,21.09
2023-04-17T10:46:12.169Z,21.42
2023-04-17T10:48:49.827Z,21.60
2023-04-17T10:51:44.024Z,21.72
2023-04-17T10:54:15.650Z,21.53
2023-04-17T10:56:48.166Z,21.36
2023-04-17T10:59:20.832Z,21.19
2023-04-17T11:02:01.373Z,20.69
2023-04-17T11:04:34.046Z,20.70
2023-04-17T11:07:02.775Z,20.66
2023-04-17T11:09:30.980Z,20.90
2023-04-17T11:12:02.799Z,21.07
2023-04-17T11:14:32.343Z,20.69
2023-04-17T11:17:02.241Z,21.11
2023-04-17T11:19:35.818Z,20.78
2023-04-17T11:22:04.275Z,20.88
2023-04-17T11:24:33.150Z,20.73
2023-04-17T11:27:03.386Z,20.88
2023-04-17T11:29:32.009Z,20.87
2023-04-17T11:32:00.836Z,20.95
2023-04-17T11:34:29.161Z,20.54
2023-04-17T11:37:00.407Z,20.58
2023-04-17T11:39:30.434Z,20.90
2023-04-17T11:41:59.031Z,20.80
2023-04-17T11:44:27.321Z,20.71
2023-04-17T11:46:56.978Z,20.57
2023-04-17T11:49:27.375Z,20.98
2023-04-17T11:51:55.642Z,20.94
2023-04-17T11:54:28.561Z,20.85
2023-04-17T11:57:01.827Z,20.96
2023-04-17T11:59:33.837Z,20.99
2023-04-17T12:02:03.399Z,21.15
2023-04-17T12:04:34.328Z,20.77
2023-04-17T12:07:03.189Z,21.11
2023-04-17T12:09:33.724Z,21.33
2023-04-17T12:12:02.743Z,21.06
2023-04-17T12:14:31.656Z,21.55
2023-04-17T12:17:00.502Z,21.67
2023-04-17T12:19:29.765Z,21.58
2023-04-17T12:21:59.258Z,21.77
2023-04-17T12:24:28.007Z,21.72
2023-04-17T12:26:58.780Z,21.83
2023-04-17T12:29:42.337Z,21.88
2023-04-17T12:32:12.394Z,21.93
2023-04-17T12:34:41.580Z,21.76
2023-04-17T12:37:10.005Z,21.84
2023-04-17T12:39:38.378Z,21.52
2023-04-17T12:42:07.778Z,21.70
2023-04-17T12:44:36.015Z,21.90
2023-04-17T12:47:04.451Z,22.09
2023-04-17T12:49:32.484Z,22.25
2023-04-17T12:52:02.583Z,22.26
2023-04-17T12:54:32.951Z,22.49
2023-04-17T12:57:01.529Z,22.45
2023-04-17T12:59:30.904Z,21.90
2023-04-17T13:01:59.592Z,22.01
2023-04-17T13:04:27.891Z,22.31
2023-04-17T13:06:56.126Z,22.41
2023-04-17T13:09:24.407Z,22.38
2023-04-17T13:11:52.456Z,22.28
2023-04-17T13:14:20.739Z,21.99
2023-04-17T13:16:50.948Z,21.91
2023-04-17T13:19:20.031Z,21.97
2023-04-17T13:21:48.475Z,22.09
2023-04-17T13:24:16.864Z,21.63
2023-04-17T13:26:45.067Z,21.53
2023-04-17T13:29:15.133Z,21.51
2023-04-17T13:31:44.463Z,21.36
2023-04-17T13:34:13.831Z,21.20
2023-04-17T13:36:44.795Z,20.59
2023-04-17T13:39:13.277Z,20.28
2023-04-17T13:41:42.169Z,20.32
2023-04-17T13:44:10.466Z,20.59
2023-04-17T13:46:38.650Z,20.92
2023-04-17T13:49:07.530Z,21.18
2023-04-17T13:51:36.966Z,21.16
2023-04-17T13:54:05.339Z,21.10
2023-04-17T13:56:33.750Z,21.44
2023-04-17T13:59:02.107Z,21.31
2023-04-17T14:01:30.245Z,21.36
2023-04-17T14:04:00.540Z,21.02
2023-04-17T14:06:29.165Z,20.95
2023-04-17T14:08:59.060Z,21.36
2023-04-17T14:11:27.660Z,21.94
2023-04-17T14:13:56.007Z,22.45
2023-04-17T14:16:24.603Z,22.47
2023-04-17T14:18:53.087Z,22.14
2023-04-17T14:21:22.001Z,21.30
2023-04-17T14:23:51.464Z,20.98
2023-04-17T14:26:22.279Z,20.94
2023-04-17T14:28:50.517Z,20.61
2023-04-17T14:31:18.723Z,20.42
2023-04-17T14:33:47.400Z,20.35
2023-04-17T14:36:15.541Z,20.73
2023-04-17T14:38:44.317Z,20.79
2023-04-17T14:41:12.719Z,21.03
2023-04-17T14:43:42.122Z,20.92
2023-04-17T14:46:10.314Z,20.93
2023-04-17T14:48:54.054Z,20.54
2023-04-17T14:51:22.811Z,20.57
2023-04-17T14:53:53.048Z,20.83
2023-04-17T14:56:21.710Z,20.87
2023-04-17T14:58:51.824Z,20.98
2023-04-17T15:01:19.959Z,21.09
2023-04-17T15:03:48.920Z,21.05
2023-04-17T15:06:17.509Z,20.81
2023-04-17T15:08:46.542Z,20.78
2023-04-17T15:11:14.903Z,21.01
2023-04-17T15:13:43.155Z,20.97
2023-04-17T15:16:12.679Z,20.90
2023-04-17T15:18:40.768Z,20.87
2023-04-17T15:21:09.436Z,20.70
2023-04-17T15:23:38.182Z,20.12
2023-04-17T15:26:06.538Z,19.76
2023-04-17T15:28:35.106Z,19.59
2023-04-17T15:31:03.239Z,19.60
2023-04-17T15:33:32.730Z,19.62
2023-04-17T15:36:02.261Z,19.58
2023-04-17T15:38:30.319Z,19.55
2023-04-17T15:40:59.066Z,19.41
2023-04-17T15:43:27.538Z,19.37
2023-04-17T15:45:55.937Z,19.26
2023-04-17T15:48:24.023Z,19.02
2023-04-17T15:50:53.703Z,18.74
2023-04-17T15:53:21.901Z,18.61
2023-04-17T15:55:50.011Z,18.51
2023-04-17T15:58:18.302Z,18.23
2023-04-17T16:00:47.101Z,18.27
2023-04-17T16:03:15.947Z,18.19
2023-04-17T16:05:44.046Z,18.23
2023-04-17T16:08:13.433Z,18.28
2023-04-17T16:10:41.684Z,18.30
2023-04-17T16:13:09.891Z,18.31
2023-04-17T16:15:37.995Z,18.36
2023-04-17T16:18:07.375Z,18.43
2023-04-17T16:20:36.055Z,18.46
2023-04-17T16:23:04.486Z,18.52
2023-04-17T16:25:34.163Z,18.55
2023-04-17T16:28:03.307Z,18.54
2023-04-17T16:30:31.601Z,18.32
2023-04-17T16:33:00.017Z,18.27
2023-04-17T16:35:30.026Z,18.17
2023-04-17T16:37:58.044Z,18.08
2023-04-17T16:40:26.736Z,18.11
2023-04-17T16:42:56.247Z,18.16
2023-04-17T16:45:24.415Z,18.15
2023-04-17T16:47:52.833Z,18.13
2023-04-17T16:50:21.147Z,17.84
2023-04-17T16:52:50.250Z,17.71
2023-04-17T16:55:18.762Z,17.78
2023-04-17T16:57:47.957Z,17.75
2023-04-17T17:00:18.250Z,17.62
2023-04-17T17:02:47.015Z,17.61
2023-04-17T17:05:17.636Z,17.67
2023-04-17T17:07:45.692Z,17.60
2023-04-17T17:10:14.092Z,17.58
2023-04-17T17:12:42.375Z,17.44
2023-04-17T17:15:11.261Z,17.40
2023-04-17T17:17:41.094Z,17.39
2023-04-17T17:20:11.418Z,17.18
2023-04-17T17:22:39.786Z,17.12
2023-04-17T17:25:08.954Z,16.74
2023-04-17T17:27:37.035Z,16.94
2023-04-17T17:30:06.021Z,16.87
2023-04-17T17:32:34.146Z,16.84
2023-04-17T17:35:03.849Z,16.66
2023-04-17T17:37:32.183Z,16.47
2023-04-17T17:40:00.816Z,16.46
2023-04-17T17:42:28.962Z,16.55
2023-04-17T17:44:57.397Z,16.42
2023-04-17T17:47:25.485Z,16.30
2023-04-17T17:49:53.655Z,16.23
2023-04-17T17:52:23.393Z,16.18
2023-04-17T17:54:51.639Z,16.08
2023-04-17T17:57:19.668Z,16.07
2023-04-17T17:59:48.091Z,15.92
2023-04-17T18:02:16.197Z,15.88
2023-04-17T18:04:44.686Z,15.81
2023-04-17T18:07:12.801Z,15.78
2023-04-17T18:09:42.136Z,15.70
2023-04-17T18:12:11.746Z,15.46
2023-04-17T18:14:39.755Z,15.41
2023-04-17T18:17:07.851Z,15.41
2023-04-17T18:19:40.749Z,15.42
2023-04-17T18:22:09.018Z,15.21
2023-04-17T18:24:37.508Z,15.35
2023-04-17T18:27:07.031Z,15.16
2023-04-17T18:29:35.206Z,15.10
2023-04-17T18:32:03.745Z,15.11
2023-04-17T18:34:31.793Z,15.12
2023-04-17T18:37:01.849Z,15.04
2023-04-17T18:39:30.509Z,15.01
2023-04-17T18:41:58.597Z,15.01
2023-04-17T18:44:28.132Z,14.84
2023-04-17T18:46:56.491Z,14.70
2023-04-17T18:49:24.490Z,14.70
2023-04-17T18:51:52.600Z,14.60
2023-04-17T18:54:20.974Z,14.40
2023-04-17T18:56:49.119Z,14.30
2023-04-17T18:59:17.133Z,14.42
2023-04-17T19:01:46.920Z,14.29
2023-04-17T19:04:15.449Z,14.14
2023-04-17T19:06:43.949Z,14.06
2023-04-17T19:09:12.734Z,14.09
2023-04-17T19:11:40.945Z,14.09
2023-04-17T19:14:09.214Z,14.11
2023-04-17T19:16:38.292Z,14.10
2023-04-17T19:19:08.464Z,14.10
2023-04-17T19:21:36.915Z,14.15
2023-04-17T19:24:05.771Z,14.17
2023-04-17T19:26:33.864Z,14.19
2023-04-17T19:29:03.141Z,14.21
2023-04-17T19:31:32.649Z,14.22
2023-04-17T19:34:01.671Z,14.25
2023-04-17T19:36:31.363Z,14.19
2023-04-17T19:38:59.885Z,14.17
2023-04-17T19:41:29.063Z,13.96
2023-04-17T19:43:57.349Z,14.03
2023-04-17T19:46:27.491Z,13.98
2023-04-17T19:48:55.637Z,14.00
2023-04-17T19:51:23.682Z,14.07
2023-04-17T19:53:54.212Z,14.06
2023-04-17T19:56:23.601Z,14.04
2023-04-17T19:58:51.946Z,14.15
2023-04-17T20:01:20.101Z,14.12
2023-04-17T20:03:48.724Z,14.05
2023-04-17T20:06:16.833Z,14.11
2023-04-17T20:08:45.135Z,14.11
2023-04-17T20:11:17.260Z,14.10
2023-04-17T20:13:48.405Z,14.13
2023-04-17T20:16:16.868Z,14.14
2023-04-17T20:18:45.715Z,14.17
2023-04-17T20:21:14.493Z,14.14
2023-04-17T20:23:43.539Z,14.11
2023-04-17T20:26:12.074Z,14.12
2023-04-17T20:28:41.654Z,14.02
2023-04-17T20:31:10.181Z,14.03
2023-04-17T20:33:38.383Z,14.02
2023-04-17T20:36:07.155Z,14.08
2023-04-17T20:38:35.558Z,14.06
2023-04-17T20:41:06.473Z,14.08
2023-04-17T20:43:34.514Z,14.10
2023-04-17T20:46:05.978Z,14.16
2023-04-17T20:48:34.121Z,14.09
2023-04-17T20:51:05.384Z,14.11
2023-04-17T20:53:33.554Z,14.04
2023-04-17T20:56:01.674Z,13.87
2023-04-17T20:58:30.119Z,13.76
2023-04-17T21:01:01.719Z,13.89
2023-04-17T21:03:32.216Z,13.73
2023-04-17T21:06:00.466Z,13.59
2023-04-17T21:08:28.906Z,13.55
2023-04-17T21:10:57.286Z,13.55
2023-04-17T21:13:26.345Z,13.54
2023-04-17T21:15:55.100Z,13.54
2023-04-17T21:18:23.538Z,13.50
2023-04-17T21:20:56.178Z,13.68
2023-04-17T21:23:25.480Z,13.76
2023-04-17T21:25:55.127Z,13.61
2023-04-17T21:28:23.344Z,13.62
2023-04-17T21:30:53.629Z,13.73
2023-04-17T21:33:21.705Z,13.65
2023-04-17T21:35:49.790Z,13.70
2023-04-17T21:38:19.626Z,13.66
2023-04-17T21:40:51.304Z,13.71
2023-04-17T21:43:20.056Z,13.72
2023-04-17T21:45:48.339Z,13.72
2023-04-17T21:48:16.810Z,13.80
2023-04-17T21:50:45.320Z,13.64
2023-04-17T21:53:13.453Z,13.60
2023-04-17T21:55:46.145Z,13.71
2023-04-17T21:58:14.640Z,13.72
2023-04-17T22:00:45.224Z,13.56
2023-04-17T22:03:29.061Z,13.62
2023-04-17T22:05:58.042Z,13.68
2023-04-17T22:08:26.357Z,13.79
2023-04-17T22:10:55.880Z,13.67
2023-04-17T22:13:23.882Z,13.60
2023-04-17T22:15:52.620Z,13.69
2023-04-17T22:18:21.333Z,13.81
2023-04-17T22:20:49.573Z,13.71
2023-04-17T22:23:17.900Z,13.62
2023-04-17T22:25:45.947Z,13.60
2023-04-17T22:28:15.747Z,13.52
2023-04-17T22:30:45.054Z,13.58
2023-04-17T22:33:13.298Z,13.54
2023-04-17T22:35:44.395Z,13.52
2023-04-17T22:38:12.529Z,13.57
2023-04-17T22:40:41.372Z,13.59
2023-04-17T22:43:09.836Z,13.60
2023-04-17T22:45:39.192Z,13.63
2023-04-17T22:48:07.433Z,13.57
2023-04-17T22:50:39.715Z,13.58
2023-04-17T22:53:07.623Z,13.64
2023-04-17T22:55:36.348Z,13.56
2023-04-17T22:58:04.965Z,13.56
2023-04-17T23:00:33.522Z,13.63
2023-04-17T23:03:03.416Z,13.45
2023-04-17T23:05:31.800Z,13.60
2023-04-17T23:07:59.867Z,13.63
2023-04-17T23:10:28.288Z,13.55
2023-04-17T23:12:56.390Z,13.63
2023-04-17T23:15:24.825Z,13.49
2023-04-17T23:17:53.385Z,13.53
2023-04-17T23:20:24.903Z,13.50
2023-04-17T23:22:53.842Z,13.60
2023-04-17T23:25:22.005Z,13.66
2023-04-17T23:27:50.308Z,13.63
2023-04-17T23:30:19.109Z,13.55
2023-04-17T23:32:47.632Z,13.61
2023-04-17T23:35:15.876Z,13.67
2023-04-17T23:37:46.252Z,13.68
2023-04-17T23:40:14.695Z,13.75
2023-04-17T23:42:42.930Z,13.65
2023-04-17T23:45:11.917Z,13.56
2023-04-17T23:47:39.915Z,13.62
2023-04-17T23:50:08.815Z,13.64
2023-04-17T23:52:37.086Z,13.61
2023-04-17T23:55:07.967Z,13.66
2023-04-17T23:57:37.890Z,13.69
